sensor_id;sensor_type;location;lat;lon;timestamp;temperature;humidity
76203;DHT22;64985;46.364;17.008;2023-07-16T00:01:10;20.30;99.90
76203;DHT22;64985;46.364;17.008;2023-07-16T00:04:13;20.30;99.90
76203;DHT22;64985;46.364;17.008;2023-07-16T00:07:15;20.60;99.90
76203;DHT22;64985;46.364;17.008;2023-07-16T00:10:19;20.70;99.90
76203;DHT22;64985;46.364;17.008;2023-07-16T00:13:21;21.00;99.90
76203;DHT22;64985;46.364;17.008;2023-07-16T00:16:23;21.10;99.90
76203;DHT22;64985;46.364;17.008;2023-07-16T00:19:25;21.10;99.90
76203;DHT22;64985;46.364;17.008;2023-07-16T00:22:27;21.00;99.90
76203;DHT22;64985;46.364;17.008;2023-07-16T00:25:29;21.00;99.90
76203;DHT22;64985;46.364;17.008;2023-07-16T00:28:32;20.90;99.90
76203;DHT22;64985;46.364;17.008;2023-07-16T00:31:34;20.90;99.90
76203;DHT22;64985;46.364;17.008;2023-07-16T00:34:36;20.80;99.90
76203;DHT22;64985;46.364;17.008;2023-07-16T00:37:38;20.70;99.90
76203;DHT22;64985;46.364;17.008;2023-07-16T00:40:40;20.70;99.90
76203;DHT22;64985;46.364;17.008;2023-07-16T00:43:42;20.80;99.90
76203;DHT22;64985;46.364;17.008;2023-07-16T00:46:45;20.70;99.90
76203;DHT22;64985;46.364;17.008;2023-07-16T00:49:47;20.70;99.90
76203;DHT22;64985;46.364;17.008;2023-07-16T00:52:49;20.80;99.90
76203;DHT22;64985;46.364;17.008;2023-07-16T00:55:52;20.60;99.90
76203;DHT22;64985;46.364;17.008;2023-07-16T00:58:54;20.50;99.90
76203;DHT22;64985;46.364;17.008;2023-07-16T01:01:56;20.60;99.90
76203;DHT22;64985;46.364;17.008;2023-07-16T01:04:58;20.50;99.90
76203;DHT22;64985;46.364;17.008;2023-07-16T01:08:04;20.50;99.90
76203;DHT22;64985;46.364;17.008;2023-07-16T01:11:08;20.60;99.90
76203;DHT22;64985;46.364;17.008;2023-07-16T01:14:12;20.60;99.90
76203;DHT22;64985;46.364;17.008;2023-07-16T01:17:15;20.60;99.90
76203;DHT22;64985;46.364;17.008;2023-07-16T01:20:17;20.60;99.90
76203;DHT22;64985;46.364;17.008;2023-07-16T01:23:35;20.60;99.90
76203;DHT22;64985;46.364;17.008;2023-07-16T01:30:14;20.40;99.90
76203;DHT22;64985;46.364;17.008;2023-07-16T01:33:19;20.40;99.90
76203;DHT22;64985;46.364;17.008;2023-07-16T01:36:23;20.40;99.90
76203;DHT22;64985;46.364;17.008;2023-07-16T01:39:26;20.60;99.90
76203;DHT22;64985;46.364;17.008;2023-07-16T01:42:28;20.50;99.90
76203;DHT22;64985;46.364;17.008;2023-07-16T01:45:30;20.50;99.90
76203;DHT22;64985;46.364;17.008;2023-07-16T01:48:37;20.40;99.90
76203;DHT22;64985;46.364;17.008;2023-07-16T01:51:39;20.30;99.90
76203;DHT22;64985;46.364;17.008;2023-07-16T01:54:41;20.20;99.90
76203;DHT22;64985;46.364;17.008;2023-07-16T01:57:43;20.10;99.90
76203;DHT22;64985;46.364;17.008;2023-07-16T02:00:45;20.20;99.90
76203;DHT22;64985;46.364;17.008;2023-07-16T02:03:50;20.20;99.90
76203;DHT22;64985;46.364;17.008;2023-07-16T02:06:52;20.20;99.90
76203;DHT22;64985;46.364;17.008;2023-07-16T02:09:54;20.10;99.90
76203;DHT22;64985;46.364;17.008;2023-07-16T02:12:56;20.10;99.90
76203;DHT22;64985;46.364;17.008;2023-07-16T02:15:58;20.10;99.90
76203;DHT22;64985;46.364;17.008;2023-07-16T02:19:00;20.10;99.90
76203;DHT22;64985;46.364;17.008;2023-07-16T02:22:02;20.10;99.90
76203;DHT22;64985;46.364;17.008;2023-07-16T02:25:05;20.10;99.90
76203;DHT22;64985;46.364;17.008;2023-07-16T02:28:07;20.00;99.90
76203;DHT22;64985;46.364;17.008;2023-07-16T02:31:10;19.90;99.90
76203;DHT22;64985;46.364;17.008;2023-07-16T02:34:12;19.70;99.90
76203;DHT22;64985;46.364;17.008;2023-07-16T02:37:15;19.70;99.90
76203;DHT22;64985;46.364;17.008;2023-07-16T02:40:17;19.60;99.90
76203;DHT22;64985;46.364;17.008;2023-07-16T02:43:19;19.60;99.90
76203;DHT22;64985;46.364;17.008;2023-07-16T02:46:21;19.60;99.90
76203;DHT22;64985;46.364;17.008;2023-07-16T02:49:23;19.70;99.90
76203;DHT22;64985;46.364;17.008;2023-07-16T02:52:25;19.70;99.90
76203;DHT22;64985;46.364;17.008;2023-07-16T02:55:28;19.70;99.90
76203;DHT22;64985;46.364;17.008;2023-07-16T02:58:30;19.80;99.90
76203;DHT22;64985;46.364;17.008;2023-07-16T03:01:32;19.80;99.90
76203;DHT22;64985;46.364;17.008;2023-07-16T03:04:34;19.80;99.90
76203;DHT22;64985;46.364;17.008;2023-07-16T03:07:36;19.80;99.90
76203;DHT22;64985;46.364;17.008;2023-07-16T03:10:38;19.90;99.90
76203;DHT22;64985;46.364;17.008;2023-07-16T03:13:41;20.00;99.90
76203;DHT22;64985;46.364;17.008;2023-07-16T03:16:43;19.90;99.90
76203;DHT22;64985;46.364;17.008;2023-07-16T03:19:45;19.90;99.90
76203;DHT22;64985;46.364;17.008;2023-07-16T03:22:48;20.00;99.90
76203;DHT22;64985;46.364;17.008;2023-07-16T03:25:51;20.00;99.90
76203;DHT22;64985;46.364;17.008;2023-07-16T03:28:53;20.00;99.90
76203;DHT22;64985;46.364;17.008;2023-07-16T03:31:57;20.00;99.90
76203;DHT22;64985;46.364;17.008;2023-07-16T03:34:59;20.00;99.90
76203;DHT22;64985;46.364;17.008;2023-07-16T03:38:01;20.00;99.90
76203;DHT22;64985;46.364;17.008;2023-07-16T03:41:04;20.00;99.90
76203;DHT22;64985;46.364;17.008;2023-07-16T03:44:06;20.00;99.90
76203;DHT22;64985;46.364;17.008;2023-07-16T03:47:08;20.00;99.90
76203;DHT22;64985;46.364;17.008;2023-07-16T03:50:11;20.00;99.90
76203;DHT22;64985;46.364;17.008;2023-07-16T03:53:13;20.00;99.90
76203;DHT22;64985;46.364;17.008;2023-07-16T03:56:15;20.10;99.90
76203;DHT22;64985;46.364;17.008;2023-07-16T03:59:18;20.10;99.90
76203;DHT22;64985;46.364;17.008;2023-07-16T04:02:20;20.10;99.90
76203;DHT22;64985;46.364;17.008;2023-07-16T04:05:22;20.20;99.90
76203;DHT22;64985;46.364;17.008;2023-07-16T04:08:25;20.40;99.90
76203;DHT22;64985;46.364;17.008;2023-07-16T04:11:27;20.40;99.90
76203;DHT22;64985;46.364;17.008;2023-07-16T04:14:29;20.50;99.90
76203;DHT22;64985;46.364;17.008;2023-07-16T04:17:32;20.40;99.90
76203;DHT22;64985;46.364;17.008;2023-07-16T04:20:34;20.40;99.90
76203;DHT22;64985;46.364;17.008;2023-07-16T04:23:36;20.40;99.90
76203;DHT22;64985;46.364;17.008;2023-07-16T04:26:38;20.40;99.90
76203;DHT22;64985;46.364;17.008;2023-07-16T04:29:40;20.40;99.90
76203;DHT22;64985;46.364;17.008;2023-07-16T04:32:42;20.40;99.90
76203;DHT22;64985;46.364;17.008;2023-07-16T04:35:44;20.40;99.90
76203;DHT22;64985;46.364;17.008;2023-07-16T04:38:46;20.40;99.90
76203;DHT22;64985;46.364;17.008;2023-07-16T04:41:49;20.50;99.90
76203;DHT22;64985;46.364;17.008;2023-07-16T04:44:51;20.50;99.90
76203;DHT22;64985;46.364;17.008;2023-07-16T04:47:53;20.70;99.90
76203;DHT22;64985;46.364;17.008;2023-07-16T04:50:55;20.70;99.90
76203;DHT22;64985;46.364;17.008;2023-07-16T04:53:57;21.00;99.90
76203;DHT22;64985;46.364;17.008;2023-07-16T04:56:59;21.30;99.90
76203;DHT22;64985;46.364;17.008;2023-07-16T05:00:01;21.50;99.90
76203;DHT22;64985;46.364;17.008;2023-07-16T05:03:05;21.60;99.90
76203;DHT22;64985;46.364;17.008;2023-07-16T05:06:07;21.80;99.90
76203;DHT22;64985;46.364;17.008;2023-07-16T05:09:09;22.10;99.90
76203;DHT22;64985;46.364;17.008;2023-07-16T05:12:11;22.30;99.90
76203;DHT22;64985;46.364;17.008;2023-07-16T05:15:13;22.60;99.90
76203;DHT22;64985;46.364;17.008;2023-07-16T05:18:16;23.00;99.90
76203;DHT22;64985;46.364;17.008;2023-07-16T05:21:18;23.20;99.90
76203;DHT22;64985;46.364;17.008;2023-07-16T05:24:20;23.00;99.90
76203;DHT22;64985;46.364;17.008;2023-07-16T05:27:22;23.10;99.90
76203;DHT22;64985;46.364;17.008;2023-07-16T05:30:24;23.20;99.90
76203;DHT22;64985;46.364;17.008;2023-07-16T05:33:26;23.70;99.90
76203;DHT22;64985;46.364;17.008;2023-07-16T05:36:28;23.70;99.90
76203;DHT22;64985;46.364;17.008;2023-07-16T05:39:31;24.10;97.60
76203;DHT22;64985;46.364;17.008;2023-07-16T05:42:33;24.00;99.90
76203;DHT22;64985;46.364;17.008;2023-07-16T05:45:36;24.20;96.50
76203;DHT22;64985;46.364;17.008;2023-07-16T05:48:38;24.20;97.70
76203;DHT22;64985;46.364;17.008;2023-07-16T05:51:40;24.20;96.70
76203;DHT22;64985;46.364;17.008;2023-07-16T05:54:43;24.20;97.60
76203;DHT22;64985;46.364;17.008;2023-07-16T05:57:46;24.30;96.00
76203;DHT22;64985;46.364;17.008;2023-07-16T06:00:49;24.50;95.60
76203;DHT22;64985;46.364;17.008;2023-07-16T06:03:51;24.70;96.60
76203;DHT22;64985;46.364;17.008;2023-07-16T06:06:53;25.40;93.70
76203;DHT22;64985;46.364;17.008;2023-07-16T06:09:55;25.50;91.70
76203;DHT22;64985;46.364;17.008;2023-07-16T06:12:57;25.40;92.00
76203;DHT22;64985;46.364;17.008;2023-07-16T06:15:59;25.40;93.40
76203;DHT22;64985;46.364;17.008;2023-07-16T06:19:02;25.90;91.30
76203;DHT22;64985;46.364;17.008;2023-07-16T06:22:04;26.10;85.30
76203;DHT22;64985;46.364;17.008;2023-07-16T06:25:07;26.00;88.00
76203;DHT22;64985;46.364;17.008;2023-07-16T06:28:09;26.20;86.30
76203;DHT22;64985;46.364;17.008;2023-07-16T06:31:11;26.20;86.70
76203;DHT22;64985;46.364;17.008;2023-07-16T06:34:13;26.50;84.70
76203;DHT22;64985;46.364;17.008;2023-07-16T06:37:15;26.60;84.80
76203;DHT22;64985;46.364;17.008;2023-07-16T06:40:18;26.80;85.20
76203;DHT22;64985;46.364;17.008;2023-07-16T06:43:20;26.90;82.00
76203;DHT22;64985;46.364;17.008;2023-07-16T06:46:22;26.80;84.00
76203;DHT22;64985;46.364;17.008;2023-07-16T06:49:24;26.60;84.30
76203;DHT22;64985;46.364;17.008;2023-07-16T06:52:26;27.00;85.30
76203;DHT22;64985;46.364;17.008;2023-07-16T06:55:29;27.20;83.70
76203;DHT22;64985;46.364;17.008;2023-07-16T06:58:32;27.20;84.30
76203;DHT22;64985;46.364;17.008;2023-07-16T07:01:36;27.60;81.30
76203;DHT22;64985;46.364;17.008;2023-07-16T07:04:38;28.00;79.10
76203;DHT22;64985;46.364;17.008;2023-07-16T07:07:40;28.30;77.40
76203;DHT22;64985;46.364;17.008;2023-07-16T07:10:44;28.70;75.80
76203;DHT22;64985;46.364;17.008;2023-07-16T07:13:46;28.80;76.90
76203;DHT22;64985;46.364;17.008;2023-07-16T07:16:48;29.10;76.10
76203;DHT22;64985;46.364;17.008;2023-07-16T07:19:50;29.00;75.40
76203;DHT22;64985;46.364;17.008;2023-07-16T07:22:53;29.30;73.20
76203;DHT22;64985;46.364;17.008;2023-07-16T07:25:55;29.40;73.60
76203;DHT22;64985;46.364;17.008;2023-07-16T07:28:57;28.90;76.00
76203;DHT22;64985;46.364;17.008;2023-07-16T07:31:59;28.90;76.00
76203;DHT22;64985;46.364;17.008;2023-07-16T07:35:02;29.00;72.50
76203;DHT22;64985;46.364;17.008;2023-07-16T07:38:05;29.50;75.20
76203;DHT22;64985;46.364;17.008;2023-07-16T07:41:07;29.70;73.20
76203;DHT22;64985;46.364;17.008;2023-07-16T07:44:09;30.30;68.60
76203;DHT22;64985;46.364;17.008;2023-07-16T07:47:11;30.50;67.80
76203;DHT22;64985;46.364;17.008;2023-07-16T07:50:14;30.60;70.90
76203;DHT22;64985;46.364;17.008;2023-07-16T07:53:16;29.70;70.60
76203;DHT22;64985;46.364;17.008;2023-07-16T07:56:20;30.40;67.50
76203;DHT22;64985;46.364;17.008;2023-07-16T07:59:22;30.20;68.60
76203;DHT22;64985;46.364;17.008;2023-07-16T08:02:25;30.50;67.40
76203;DHT22;64985;46.364;17.008;2023-07-16T08:05:27;30.40;70.80
76203;DHT22;64985;46.364;17.008;2023-07-16T08:08:29;30.90;67.10
76203;DHT22;64985;46.364;17.008;2023-07-16T08:11:31;30.70;67.20
76203;DHT22;64985;46.364;17.008;2023-07-16T08:14:33;30.40;68.50
76203;DHT22;64985;46.364;17.008;2023-07-16T08:17:35;30.80;67.90
76203;DHT22;64985;46.364;17.008;2023-07-16T08:20:38;30.90;70.40
76203;DHT22;64985;46.364;17.008;2023-07-16T08:23:40;31.20;69.50
76203;DHT22;64985;46.364;17.008;2023-07-16T08:26:42;31.50;66.80
76203;DHT22;64985;46.364;17.008;2023-07-16T08:29:44;31.70;68.10
76203;DHT22;64985;46.364;17.008;2023-07-16T08:32:47;31.90;68.70
76203;DHT22;64985;46.364;17.008;2023-07-16T08:35:49;31.70;68.00
76203;DHT22;64985;46.364;17.008;2023-07-16T08:38:51;32.00;66.60
76203;DHT22;64985;46.364;17.008;2023-07-16T08:41:53;32.30;66.90
76203;DHT22;64985;46.364;17.008;2023-07-16T08:44:56;32.20;67.50
76203;DHT22;64985;46.364;17.008;2023-07-16T08:47:58;31.50;68.00
76203;DHT22;64985;46.364;17.008;2023-07-16T08:51:02;31.50;66.80
76203;DHT22;64985;46.364;17.008;2023-07-16T08:54:04;32.10;70.90
76203;DHT22;64985;46.364;17.008;2023-07-16T08:57:08;32.80;66.60
76203;DHT22;64985;46.364;17.008;2023-07-16T09:00:11;33.00;66.40
76203;DHT22;64985;46.364;17.008;2023-07-16T09:03:14;33.40;63.90
76203;DHT22;64985;46.364;17.008;2023-07-16T09:06:20;33.50;63.20
76203;DHT22;64985;46.364;17.008;2023-07-16T09:09:23;33.70;64.40
76203;DHT22;64985;46.364;17.008;2023-07-16T09:12:25;33.90;61.70
76203;DHT22;64985;46.364;17.008;2023-07-16T09:15:29;33.40;63.80
76203;DHT22;64985;46.364;17.008;2023-07-16T09:18:31;33.50;64.90
76203;DHT22;64985;46.364;17.008;2023-07-16T09:21:33;33.50;65.50
76203;DHT22;64985;46.364;17.008;2023-07-16T09:24:36;33.80;64.70
76203;DHT22;64985;46.364;17.008;2023-07-16T09:27:39;33.60;61.50
76203;DHT22;64985;46.364;17.008;2023-07-16T09:30:41;33.60;62.20
76203;DHT22;64985;46.364;17.008;2023-07-16T09:33:46;34.00;63.30
76203;DHT22;64985;46.364;17.008;2023-07-16T09:36:49;33.90;62.00
76203;DHT22;64985;46.364;17.008;2023-07-16T09:39:52;34.00;61.30
76203;DHT22;64985;46.364;17.008;2023-07-16T09:42:55;33.90;61.00
76203;DHT22;64985;46.364;17.008;2023-07-16T09:45:57;33.50;59.00
76203;DHT22;64985;46.364;17.008;2023-07-16T09:49:00;33.50;60.80
76203;DHT22;64985;46.364;17.008;2023-07-16T09:52:02;33.70;61.10
76203;DHT22;64985;46.364;17.008;2023-07-16T09:55:05;33.50;58.40
76203;DHT22;64985;46.364;17.008;2023-07-16T09:58:10;33.40;61.50
76203;DHT22;64985;46.364;17.008;2023-07-16T10:01:14;34.00;59.80
76203;DHT22;64985;46.364;17.008;2023-07-16T10:04:18;34.40;57.50
76203;DHT22;64985;46.364;17.008;2023-07-16T10:07:24;34.60;63.00
76203;DHT22;64985;46.364;17.008;2023-07-16T10:10:46;34.90;61.10
76203;DHT22;64985;46.364;17.008;2023-07-16T10:13:53;34.80;61.60
76203;DHT22;64985;46.364;17.008;2023-07-16T10:17:01;35.00;60.90
76203;DHT22;64985;46.364;17.008;2023-07-16T10:20:08;35.10;59.70
76203;DHT22;64985;46.364;17.008;2023-07-16T10:23:16;35.10;58.10
76203;DHT22;64985;46.364;17.008;2023-07-16T10:26:18;35.10;55.20
76203;DHT22;64985;46.364;17.008;2023-07-16T10:29:21;34.90;58.80
76203;DHT22;64985;46.364;17.008;2023-07-16T10:32:27;34.90;58.80
76203;DHT22;64985;46.364;17.008;2023-07-16T10:35:30;34.70;57.80
76203;DHT22;64985;46.364;17.008;2023-07-16T10:38:40;34.90;59.40
76203;DHT22;64985;46.364;17.008;2023-07-16T10:41:44;35.20;59.00
76203;DHT22;64985;46.364;17.008;2023-07-16T10:44:50;35.20;56.90
76203;DHT22;64985;46.364;17.008;2023-07-16T10:47:55;34.60;60.00
76203;DHT22;64985;46.364;17.008;2023-07-16T10:50:57;34.90;57.90
76203;DHT22;64985;46.364;17.008;2023-07-16T10:53:59;35.00;59.90
76203;DHT22;64985;46.364;17.008;2023-07-16T10:57:04;34.80;57.90
76203;DHT22;64985;46.364;17.008;2023-07-16T11:00:10;34.50;56.30
76203;DHT22;64985;46.364;17.008;2023-07-16T11:03:15;35.00;60.60
76203;DHT22;64985;46.364;17.008;2023-07-16T11:06:19;35.40;57.10
76203;DHT22;64985;46.364;17.008;2023-07-16T11:09:21;35.20;58.10
76203;DHT22;64985;46.364;17.008;2023-07-16T11:12:24;35.30;59.40
76203;DHT22;64985;46.364;17.008;2023-07-16T11:15:33;35.20;58.30
76203;DHT22;64985;46.364;17.008;2023-07-16T11:18:36;35.10;59.70
76203;DHT22;64985;46.364;17.008;2023-07-16T11:21:39;35.50;61.20
76203;DHT22;64985;46.364;17.008;2023-07-16T11:24:47;35.40;56.60
76203;DHT22;64985;46.364;17.008;2023-07-16T11:27:54;35.00;59.00
76203;DHT22;64985;46.364;17.008;2023-07-16T11:30:56;35.30;56.90
76203;DHT22;64985;46.364;17.008;2023-07-16T11:34:00;35.30;55.70
76203;DHT22;64985;46.364;17.008;2023-07-16T11:37:12;35.00;57.70
76203;DHT22;64985;46.364;17.008;2023-07-16T11:40:18;35.20;58.60
76203;DHT22;64985;46.364;17.008;2023-07-16T11:43:21;35.30;54.00
76203;DHT22;64985;46.364;17.008;2023-07-16T11:46:23;35.40;51.00
76203;DHT22;64985;46.364;17.008;2023-07-16T11:49:25;34.40;55.60
76203;DHT22;64985;46.364;17.008;2023-07-16T11:52:29;34.70;52.90
76203;DHT22;64985;46.364;17.008;2023-07-16T11:55:31;35.50;56.90
76203;DHT22;64985;46.364;17.008;2023-07-16T11:58:33;35.60;53.00
76203;DHT22;64985;46.364;17.008;2023-07-16T12:01:35;35.90;57.30
76203;DHT22;64985;46.364;17.008;2023-07-16T12:04:38;35.80;54.70
76203;DHT22;64985;46.364;17.008;2023-07-16T12:07:40;36.00;53.60
76203;DHT22;64985;46.364;17.008;2023-07-16T12:10:42;35.80;56.50
76203;DHT22;64985;46.364;17.008;2023-07-16T12:13:44;36.10;55.00
76203;DHT22;64985;46.364;17.008;2023-07-16T12:16:46;35.70;52.10
76203;DHT22;64985;46.364;17.008;2023-07-16T12:19:49;36.10;53.70
76203;DHT22;64985;46.364;17.008;2023-07-16T12:22:51;36.10;49.30
76203;DHT22;64985;46.364;17.008;2023-07-16T12:25:53;36.00;52.90
76203;DHT22;64985;46.364;17.008;2023-07-16T12:28:55;36.30;51.50
76203;DHT22;64985;46.364;17.008;2023-07-16T12:31:57;36.60;53.60
76203;DHT22;64985;46.364;17.008;2023-07-16T12:34:59;36.50;55.40
76203;DHT22;64985;46.364;17.008;2023-07-16T12:38:02;36.50;54.50
76203;DHT22;64985;46.364;17.008;2023-07-16T12:41:05;36.90;54.30
76203;DHT22;64985;46.364;17.008;2023-07-16T12:44:07;36.80;52.70
76203;DHT22;64985;46.364;17.008;2023-07-16T12:47:09;36.70;55.10
76203;DHT22;64985;46.364;17.008;2023-07-16T12:50:11;36.70;51.00
76203;DHT22;64985;46.364;17.008;2023-07-16T12:53:13;36.80;55.30
76203;DHT22;64985;46.364;17.008;2023-07-16T12:56:16;36.90;54.60
76203;DHT22;64985;46.364;17.008;2023-07-16T12:59:18;36.80;54.00
76203;DHT22;64985;46.364;17.008;2023-07-16T13:02:21;36.90;52.90
76203;DHT22;64985;46.364;17.008;2023-07-16T13:05:23;37.10;55.20
76203;DHT22;64985;46.364;17.008;2023-07-16T13:08:26;36.90;49.60
76203;DHT22;64985;46.364;17.008;2023-07-16T13:11:28;36.50;52.80
76203;DHT22;64985;46.364;17.008;2023-07-16T13:14:31;36.90;49.50
76203;DHT22;64985;46.364;17.008;2023-07-16T13:17:33;36.90;54.00
76203;DHT22;64985;46.364;17.008;2023-07-16T13:20:35;37.20;52.70
76203;DHT22;64985;46.364;17.008;2023-07-16T13:23:38;36.90;51.00
76203;DHT22;64985;46.364;17.008;2023-07-16T13:26:41;36.80;52.90
76203;DHT22;64985;46.364;17.008;2023-07-16T13:29:43;36.90;54.20
76203;DHT22;64985;46.364;17.008;2023-07-16T13:32:45;36.80;49.50
76203;DHT22;64985;46.364;17.008;2023-07-16T13:35:48;36.70;53.60
76203;DHT22;64985;46.364;17.008;2023-07-16T13:38:51;36.50;53.70
76203;DHT22;64985;46.364;17.008;2023-07-16T13:41:53;36.80;52.80
76203;DHT22;64985;46.364;17.008;2023-07-16T13:45:05;36.90;53.50
76203;DHT22;64985;46.364;17.008;2023-07-16T13:48:08;36.60;54.10
76203;DHT22;64985;46.364;17.008;2023-07-16T13:51:11;36.30;51.90
76203;DHT22;64985;46.364;17.008;2023-07-16T13:54:13;36.40;54.80
76203;DHT22;64985;46.364;17.008;2023-07-16T13:57:16;36.20;50.60
76203;DHT22;64985;46.364;17.008;2023-07-16T14:00:18;36.10;57.40
76203;DHT22;64985;46.364;17.008;2023-07-16T14:03:21;36.60;54.30
76203;DHT22;64985;46.364;17.008;2023-07-16T14:06:24;36.80;51.10
76203;DHT22;64985;46.364;17.008;2023-07-16T14:09:27;36.80;56.20
76203;DHT22;64985;46.364;17.008;2023-07-16T14:12:30;36.90;54.10
76203;DHT22;64985;46.364;17.008;2023-07-16T14:15:32;36.60;52.50
76203;DHT22;64985;46.364;17.008;2023-07-16T14:18:34;36.50;51.00
76203;DHT22;64985;46.364;17.008;2023-07-16T14:21:36;36.40;49.50
76203;DHT22;64985;46.364;17.008;2023-07-16T14:24:39;36.50;52.80
76203;DHT22;64985;46.364;17.008;2023-07-16T14:27:41;35.90;51.70
76203;DHT22;64985;46.364;17.008;2023-07-16T14:30:44;35.70;54.40
76203;DHT22;64985;46.364;17.008;2023-07-16T14:33:47;35.40;52.20
76203;DHT22;64985;46.364;17.008;2023-07-16T14:36:49;35.30;51.80
76203;DHT22;64985;46.364;17.008;2023-07-16T14:39:51;35.00;53.00
76203;DHT22;64985;46.364;17.008;2023-07-16T14:42:54;35.20;58.10
76203;DHT22;64985;46.364;17.008;2023-07-16T14:45:57;35.30;52.60
76203;DHT22;64985;46.364;17.008;2023-07-16T14:49:00;35.50;53.80
76203;DHT22;64985;46.364;17.008;2023-07-16T14:52:03;35.40;50.30
76203;DHT22;64985;46.364;17.008;2023-07-16T14:55:06;35.60;53.20
76203;DHT22;64985;46.364;17.008;2023-07-16T14:58:08;35.50;52.50
76203;DHT22;64985;46.364;17.008;2023-07-16T15:01:10;35.30;53.60
76203;DHT22;64985;46.364;17.008;2023-07-16T15:04:13;35.40;52.30
76203;DHT22;64985;46.364;17.008;2023-07-16T15:07:16;35.30;52.70
76203;DHT22;64985;46.364;17.008;2023-07-16T15:10:19;35.30;51.90
76203;DHT22;64985;46.364;17.008;2023-07-16T15:13:22;35.30;54.60
76203;DHT22;64985;46.364;17.008;2023-07-16T15:16:27;35.40;52.90
76203;DHT22;64985;46.364;17.008;2023-07-16T15:19:30;35.40;56.00
76203;DHT22;64985;46.364;17.008;2023-07-16T15:22:32;35.50;54.70
76203;DHT22;64985;46.364;17.008;2023-07-16T15:25:35;35.10;51.60
76203;DHT22;64985;46.364;17.008;2023-07-16T15:28:38;34.90;52.80
76203;DHT22;64985;46.364;17.008;2023-07-16T15:31:43;34.80;53.00
76203;DHT22;64985;46.364;17.008;2023-07-16T15:34:46;34.80;56.00
76203;DHT22;64985;46.364;17.008;2023-07-16T15:37:49;34.90;53.10
76203;DHT22;64985;46.364;17.008;2023-07-16T15:40:54;34.80;50.80
76203;DHT22;64985;46.364;17.008;2023-07-16T15:43:59;34.70;52.70
76203;DHT22;64985;46.364;17.008;2023-07-16T15:47:02;34.50;54.70
76203;DHT22;64985;46.364;17.008;2023-07-16T15:50:05;34.60;53.30
76203;DHT22;64985;46.364;17.008;2023-07-16T15:53:08;34.80;52.10
76203;DHT22;64985;46.364;17.008;2023-07-16T15:56:12;34.70;54.70
76203;DHT22;64985;46.364;17.008;2023-07-16T15:59:14;34.70;54.20
76203;DHT22;64985;46.364;17.008;2023-07-16T16:02:17;34.90;54.50
76203;DHT22;64985;46.364;17.008;2023-07-16T16:05:20;34.70;52.40
76203;DHT22;64985;46.364;17.008;2023-07-16T16:08:22;34.60;53.30
76203;DHT22;64985;46.364;17.008;2023-07-16T16:11:25;34.40;55.40
76203;DHT22;64985;46.364;17.008;2023-07-16T16:14:29;34.50;53.80
76203;DHT22;64985;46.364;17.008;2023-07-16T16:17:32;34.30;55.30
76203;DHT22;64985;46.364;17.008;2023-07-16T16:20:36;34.20;54.40
76203;DHT22;64985;46.364;17.008;2023-07-16T16:23:39;34.20;54.60
76203;DHT22;64985;46.364;17.008;2023-07-16T16:26:42;33.70;55.20
76203;DHT22;64985;46.364;17.008;2023-07-16T16:29:44;33.50;57.20
76203;DHT22;64985;46.364;17.008;2023-07-16T16:32:47;33.30;57.10
76203;DHT22;64985;46.364;17.008;2023-07-16T16:35:52;33.40;56.50
76203;DHT22;64985;46.364;17.008;2023-07-16T16:38:54;33.20;58.60
76203;DHT22;64985;46.364;17.008;2023-07-16T16:41:57;33.40;57.50
76203;DHT22;64985;46.364;17.008;2023-07-16T16:44:59;33.50;59.70
76203;DHT22;64985;46.364;17.008;2023-07-16T16:48:04;33.50;60.00
76203;DHT22;64985;46.364;17.008;2023-07-16T16:51:07;33.30;65.20
76203;DHT22;64985;46.364;17.008;2023-07-16T16:54:09;33.10;65.00
76203;DHT22;64985;46.364;17.008;2023-07-16T16:57:12;32.90;67.60
76203;DHT22;64985;46.364;17.008;2023-07-16T17:00:15;32.60;68.30
76203;DHT22;64985;46.364;17.008;2023-07-16T17:03:19;32.30;70.60
76203;DHT22;64985;46.364;17.008;2023-07-16T17:06:22;32.20;74.00
76203;DHT22;64985;46.364;17.008;2023-07-16T17:09:25;31.80;74.00
76203;DHT22;64985;46.364;17.008;2023-07-16T17:12:29;31.60;77.80
76203;DHT22;64985;46.364;17.008;2023-07-16T17:15:32;31.50;78.90
76203;DHT22;64985;46.364;17.008;2023-07-16T17:18:34;31.30;81.00
76203;DHT22;64985;46.364;17.008;2023-07-16T17:21:36;31.00;81.40
76203;DHT22;64985;46.364;17.008;2023-07-16T17:24:39;30.80;83.10
76203;DHT22;64985;46.364;17.008;2023-07-16T17:27:41;30.70;91.30
76203;DHT22;64985;46.364;17.008;2023-07-16T17:30:43;30.40;92.70
76203;DHT22;64985;46.364;17.008;2023-07-16T17:33:46;30.30;94.10
76203;DHT22;64985;46.364;17.008;2023-07-16T17:36:48;30.00;93.80
76203;DHT22;64985;46.364;17.008;2023-07-16T17:39:50;29.60;92.20
76203;DHT22;64985;46.364;17.008;2023-07-16T17:42:53;29.40;93.50
76203;DHT22;64985;46.364;17.008;2023-07-16T17:45:56;29.00;97.50
76203;DHT22;64985;46.364;17.008;2023-07-16T17:48:58;28.80;98.30
76203;DHT22;64985;46.364;17.008;2023-07-16T17:52:01;28.70;99.00
76203;DHT22;64985;46.364;17.008;2023-07-16T17:55:05;28.50;99.90
76203;DHT22;64985;46.364;17.008;2023-07-16T17:58:08;28.30;99.90
76203;DHT22;64985;46.364;17.008;2023-07-16T18:01:10;28.00;99.90
76203;DHT22;64985;46.364;17.008;2023-07-16T18:04:14;27.70;99.90
76203;DHT22;64985;46.364;17.008;2023-07-16T18:07:17;27.50;99.90
76203;DHT22;64985;46.364;17.008;2023-07-16T18:10:23;27.30;99.90
76203;DHT22;64985;46.364;17.008;2023-07-16T18:13:26;27.10;99.90
76203;DHT22;64985;46.364;17.008;2023-07-16T18:16:28;26.80;99.90
76203;DHT22;64985;46.364;17.008;2023-07-16T18:19:31;26.70;99.90
76203;DHT22;64985;46.364;17.008;2023-07-16T18:22:36;26.50;99.90
76203;DHT22;64985;46.364;17.008;2023-07-16T18:25:39;26.30;99.90
76203;DHT22;64985;46.364;17.008;2023-07-16T18:28:42;26.20;99.90
76203;DHT22;64985;46.364;17.008;2023-07-16T18:31:45;25.90;99.90
76203;DHT22;64985;46.364;17.008;2023-07-16T18:34:48;25.50;99.90
76203;DHT22;64985;46.364;17.008;2023-07-16T18:37:54;25.40;99.90
76203;DHT22;64985;46.364;17.008;2023-07-16T18:40:57;25.30;99.90
76203;DHT22;64985;46.364;17.008;2023-07-16T18:44:00;25.20;99.90
76203;DHT22;64985;46.364;17.008;2023-07-16T18:47:02;25.00;99.90
76203;DHT22;64985;46.364;17.008;2023-07-16T18:50:05;24.90;99.90
76203;DHT22;64985;46.364;17.008;2023-07-16T18:53:08;24.80;99.90
76203;DHT22;64985;46.364;17.008;2023-07-16T18:56:11;24.60;99.90
76203;DHT22;64985;46.364;17.008;2023-07-16T18:59:15;24.40;99.90